Ulaan-Gom, Mongolia
Current Conditions -  °F | °C
As of 7:00 PM on Saturday 25 Oct 2014 (Local Time) from UNAA Reporting Station
Broken Clouds Broken Clouds  
Wind Chill: 41°   Ceiling: 13000
Heat Index: 41°   Visibility: 6mi
Dew Point: 37°   Wind: 2mph
Humidity: 87%   Direction: NA
Pressure: 29.88"   Gusts: NA
Location:  49.98°N, 92.08°E
Report Text: UNAA 251100Z VRB01MPS 9999 SCT026CB BKN130 05/03 Q1012 NOSIGRMK QFE736 52290055
Loading
Personal Weather Stations






























Interactive Weather Map
Tropical Storm Tracking
New forecast layout! Learn more

10-Day Weather Forecast

Advertisements
Track Severe Weather on mobile